Time,TemperatureF,DewpointF,PressureIn,WindDirection,WindDirectionDegrees,WindSpeedMPH,WindSpeedGustMPH,Humidity,HourlyPrecipIn,Conditions,Clouds,dailyrainin,SoftwareType,DateUTC
2013-09-13 00:11:00,61.9,56.3,29.74,NNW,337,9.4,-999.0,82,-99.99,,,0.00,Acu-Link.com,2013-09-13 04:11:00,
2013-09-13 00:26:00,61.3,56.1,29.74,NNW,337,8.3,-999.0,83,-99.99,,,0.00,Acu-Link.com,2013-09-13 04:26:00,
2013-09-13 00:41:00,60.8,55.9,29.74,NE,45,7.3,-999.0,84,-99.99,,,0.00,Acu-Link.com,2013-09-13 04:41:00,
2013-09-13 00:56:00,60.3,56.1,29.75,NNW,337,6.3,-999.0,86,-99.99,,,0.00,Acu-Link.com,2013-09-13 04:56:00,
2013-09-13 01:11:00,59.9,56.0,29.75,NW,315,6.8,-999.0,87,-99.99,,,0.00,Acu-Link.com,2013-09-13 05:11:00,
2013-09-13 01:27:00,59.2,56.0,29.75,NE,45,6.3,-999.0,89,-99.99,,,0.00,Acu-Link.com,2013-09-13 05:27:00,
2013-09-13 01:42:00,59.2,56.0,29.76,North,0,6.3,-999.0,89,-99.99,,,0.00,Acu-Link.com,2013-09-13 05:42:00,
2013-09-13 01:57:00,58.8,55.9,29.76,NW,315,4.2,-999.0,90,-99.99,,,0.00,Acu-Link.com,2013-09-13 05:57:00,
2013-09-13 02:12:00,58.5,55.9,29.76,NNW,337,6.8,-999.0,91,-99.99,,,0.00,Acu-Link.com,2013-09-13 06:12:00,
2013-09-13 02:27:00,58.1,55.8,29.76,NNW,337,5.8,-999.0,92,-99.99,,,0.00,Acu-Link.com,2013-09-13 06:27:00,
2013-09-13 02:42:00,57.9,55.6,29.77,North,0,5.8,-999.0,92,-99.99,,,0.00,Acu-Link.com,2013-09-13 06:42:00,
2013-09-13 02:57:00,57.2,55.5,29.77,NW,315,5.8,-999.0,94,-99.99,,,0.00,Acu-Link.com,2013-09-13 06:57:00,
2013-09-13 03:12:00,57.0,55.3,29.77,NW,315,8.3,-999.0,94,-99.99,,,0.00,Acu-Link.com,2013-09-13 07:12:00,
2013-09-13 03:27:00,56.8,55.1,29.78,NNE,22,7.8,-999.0,94,-99.99,,,0.00,Acu-Link.com,2013-09-13 07:27:00,
2013-09-13 03:43:00,56.7,55.0,29.78,NE,45,9.9,-999.0,94,-99.99,,,0.00,Acu-Link.com,2013-09-13 07:43:00,
2013-09-13 03:58:00,56.5,54.5,29.77,NNE,22,8.9,-999.0,93,-99.99,,,0.00,Acu-Link.com,2013-09-13 07:58:00,
2013-09-13 04:13:00,56.5,54.5,29.77,NE,45,8.3,-999.0,93,-99.99,,,0.00,Acu-Link.com,2013-09-13 08:13:00,
2013-09-13 04:28:00,56.5,54.5,29.77,NE,45,4.7,-999.0,93,-99.99,,,0.00,Acu-Link.com,2013-09-13 08:28:00,
2013-09-13 04:44:00,56.5,54.2,29.77,NNE,22,6.8,-999.0,92,-99.99,,,0.00,Acu-Link.com,2013-09-13 08:44:00,
2013-09-13 04:59:00,55.9,53.9,29.77,NNE,22,7.8,-999.0,93,-99.99,,,0.00,Acu-Link.com,2013-09-13 08:59:00,
2013-09-13 05:14:00,55.4,53.4,29.78,NW,315,5.8,-999.0,93,-99.99,,,0.00,Acu-Link.com,2013-09-13 09:14:00,
2013-09-13 05:29:00,54.9,53.2,29.78,WNW,292,6.3,-999.0,94,-99.99,,,0.00,Acu-Link.com,2013-09-13 09:29:00,
2013-09-13 05:44:00,54.0,52.6,29.78,North,0,4.7,-999.0,95,-99.99,,,0.00,Acu-Link.com,2013-09-13 09:44:00,
2013-09-13 05:59:00,53.4,52.3,29.79,North,0,5.8,-999.0,96,-99.99,,,0.00,Acu-Link.com,2013-09-13 09:59:00,
2013-09-13 06:14:00,52.9,52.1,29.79,North,0,4.7,-999.0,97,-99.99,,,0.00,Acu-Link.com,2013-09-13 10:14:00,
2013-09-13 06:29:00,52.7,51.9,29.80,NNW,337,6.8,-999.0,97,-99.99,,,0.00,Acu-Link.com,2013-09-13 10:29:00,
2013-09-13 06:44:00,52.7,51.9,29.81,NNE,22,6.3,-999.0,97,-99.99,,,0.00,Acu-Link.com,2013-09-13 10:44:00,
2013-09-13 06:59:00,52.3,51.5,29.81,NNE,22,5.8,-999.0,97,-99.99,,,0.00,Acu-Link.com,2013-09-13 10:59:00,
2013-09-13 07:15:00,51.8,50.7,29.82,NW,315,5.8,-999.0,96,-99.99,,,0.00,Acu-Link.com,2013-09-13 11:15:00,
2013-09-13 07:30:00,51.6,50.2,29.82,NNE,22,3.7,-999.0,95,-99.99,,,0.00,Acu-Link.com,2013-09-13 11:30:00,
2013-09-13 07:45:00,51.8,50.4,29.83,NNW,337,4.7,-999.0,95,-99.99,,,0.00,Acu-Link.com,2013-09-13 11:45:00,
2013-09-13 08:00:00,52.2,50.5,29.83,NW,315,4.7,-999.0,94,-99.99,,,0.00,Acu-Link.com,2013-09-13 12:00:00,
2013-09-13 08:15:00,53.1,51.4,29.83,NNW,337,3.7,-999.0,94,-99.99,,,0.00,Acu-Link.com,2013-09-13 12:15:00,
2013-09-13 08:30:00,54.0,51.4,29.83,NW,315,6.3,-999.0,91,-99.99,,,0.00,Acu-Link.com,2013-09-13 12:30:00,
2013-09-13 08:46:00,55.2,51.1,29.83,North,0,6.8,-999.0,86,-99.99,,,0.00,Acu-Link.com,2013-09-13 12:46:00,
2013-09-13 09:01:00,55.9,50.8,29.83,NW,315,6.8,-999.0,83,-99.99,,,0.00,Acu-Link.com,2013-09-13 13:01:00,
2013-09-13 09:17:00,56.1,49.0,29.83,NW,315,8.3,-999.0,77,-99.99,,,0.00,Acu-Link.com,2013-09-13 13:17:00,
2013-09-13 09:32:00,56.8,49.0,29.84,North,0,9.4,-999.0,75,-99.99,,,0.00,Acu-Link.com,2013-09-13 13:32:00,
2013-09-13 09:47:00,57.6,47.9,29.83,NNE,22,10.4,-999.0,70,-99.99,,,0.00,Acu-Link.com,2013-09-13 13:47:00,
2013-09-13 10:02:00,57.0,46.5,29.83,West,270,9.9,-999.0,68,-99.99,,,0.00,Acu-Link.com,2013-09-13 14:02:00,
2013-09-13 10:17:00,57.2,46.7,29.84,NNE,22,10.4,-999.0,68,-99.99,,,0.00,Acu-Link.com,2013-09-13 14:17:00,
2013-09-13 10:32:00,58.1,47.6,29.84,NW,315,10.9,-999.0,68,-99.99,,,0.00,Acu-Link.com,2013-09-13 14:32:00,
2013-09-13 10:47:00,58.8,47.5,29.85,NE,45,10.9,-999.0,66,-99.99,,,0.00,Acu-Link.com,2013-09-13 14:47:00,
2013-09-13 11:03:00,59.4,48.0,29.85,NW,315,7.3,-999.0,66,-99.99,,,0.00,Acu-Link.com,2013-09-13 15:03:00,
2013-09-13 11:18:00,59.9,48.5,29.85,NNE,22,8.3,-999.0,66,-99.99,,,0.00,Acu-Link.com,2013-09-13 15:18:00,
2013-09-13 11:33:00,59.5,48.1,29.86,NNE,22,9.9,-999.0,66,-99.99,,,0.00,Acu-Link.com,2013-09-13 15:33:00,
2013-09-13 11:48:00,60.4,47.7,29.86,NNE,22,6.8,-999.0,63,-99.99,,,0.00,Acu-Link.com,2013-09-13 15:48:00,
2013-09-13 12:03:00,61.3,47.3,29.85,NNW,337,10.4,-999.0,60,-99.99,,,0.00,Acu-Link.com,2013-09-13 16:03:00,
2013-09-13 12:18:00,62.2,46.8,29.84,NNW,337,15.5,-999.0,57,-99.99,,,0.00,Acu-Link.com,2013-09-13 16:18:00,
2013-09-13 12:34:00,62.4,47.4,29.85,NNE,22,12.5,-999.0,58,-99.99,,,0.00,Acu-Link.com,2013-09-13 16:34:00,
2013-09-13 12:49:00,62.6,47.2,29.84,NNW,337,8.3,-999.0,57,-99.99,,,0.00,Acu-Link.com,2013-09-13 16:49:00,
2013-09-13 13:04:00,63.5,48.0,29.84,NNW,337,13.0,-999.0,57,-99.99,,,0.00,Acu-Link.com,2013-09-13 17:04:00,
2013-09-13 13:19:00,61.9,47.4,29.84,NNE,22,11.4,-999.0,59,-99.99,,,0.00,Acu-Link.com,2013-09-13 17:19:00,
2013-09-13 13:34:00,62.1,48.0,29.84,NNE,22,9.9,-999.0,60,-99.99,,,0.00,Acu-Link.com,2013-09-13 17:34:00,
2013-09-13 13:49:00,62.2,47.2,29.85,NW,315,12.5,-999.0,58,-99.99,,,0.00,Acu-Link.com,2013-09-13 17:49:00,
2013-09-13 14:04:00,62.8,47.3,29.84,NNW,337,11.4,-999.0,57,-99.99,,,0.00,Acu-Link.com,2013-09-13 18:04:00,
2013-09-13 14:19:00,64.4,47.4,29.83,NNW,337,4.7,-999.0,54,-99.99,,,0.00,Acu-Link.com,2013-09-13 18:19:00,
2013-09-13 14:34:00,63.1,46.7,29.83,ENE,67,10.9,-999.0,55,-99.99,,,0.00,Acu-Link.com,2013-09-13 18:34:00,
2013-09-13 14:49:00,64.6,46.6,29.82,NNW,337,15.5,-999.0,52,-99.99,,,0.00,Acu-Link.com,2013-09-13 18:49:00,
2013-09-13 15:04:00,64.8,46.2,29.82,NW,315,14.0,-999.0,51,-99.99,,,0.00,Acu-Link.com,2013-09-13 19:04:00,
2013-09-13 15:19:00,66.6,45.7,29.81,ENE,67,9.4,-999.0,47,-99.99,,,0.00,Acu-Link.com,2013-09-13 19:19:00,
2013-09-13 15:34:00,65.1,44.9,29.81,NW,315,9.9,-999.0,48,-99.99,,,0.00,Acu-Link.com,2013-09-13 19:34:00,
2013-09-13 15:49:00,66.6,46.3,29.80,NE,45,9.9,-999.0,48,-99.99,,,0.00,Acu-Link.com,2013-09-13 19:49:00,
2013-09-13 16:05:00,65.8,45.0,29.80,NW,315,11.9,-999.0,47,-99.99,,,0.00,Acu-Link.com,2013-09-13 20:05:00,
2013-09-13 16:20:00,65.5,45.3,29.80,NNW,337,8.9,-999.0,48,-99.99,,,0.00,Acu-Link.com,2013-09-13 20:20:00,
2013-09-13 16:35:00,66.4,45.0,29.80,NNE,22,11.4,-999.0,46,-99.99,,,0.00,Acu-Link.com,2013-09-13 20:35:00,
2013-09-13 16:50:00,65.5,44.7,29.80,NE,45,9.9,-999.0,47,-99.99,,,0.00,Acu-Link.com,2013-09-13 20:50:00,
2013-09-13 17:05:00,66.2,45.4,29.80,NNE,22,12.5,-999.0,47,-99.99,,,0.00,Acu-Link.com,2013-09-13 21:05:00,
2013-09-13 17:20:00,66.4,45.0,29.79,North,0,7.3,-999.0,46,-99.99,,,0.00,Acu-Link.com,2013-09-13 21:20:00,
2013-09-13 17:35:00,66.6,45.2,29.80,NNE,22,7.8,-999.0,46,-99.99,,,0.00,Acu-Link.com,2013-09-13 21:35:00,
2013-09-13 17:50:00,66.6,44.6,29.79,North,0,4.7,-999.0,45,-99.99,,,0.00,Acu-Link.com,2013-09-13 21:50:00,
2013-09-13 18:05:00,66.6,44.6,29.80,NE,45,9.4,-999.0,45,-99.99,,,0.00,Acu-Link.com,2013-09-13 22:05:00,
2013-09-13 18:20:00,66.0,44.0,29.80,NW,315,6.8,-999.0,45,-99.99,,,0.00,Acu-Link.com,2013-09-13 22:20:00,
2013-09-13 18:35:00,66.7,44.7,29.80,NNW,337,12.5,-999.0,45,-99.99,,,0.00,Acu-Link.com,2013-09-13 22:35:00,
2013-09-13 18:50:00,65.3,44.0,29.80,NW,315,4.7,-999.0,46,-99.99,,,0.00,Acu-Link.com,2013-09-13 22:50:00,
2013-09-13 19:05:00,65.1,45.5,29.81,NNE,22,5.8,-999.0,49,-99.99,,,0.00,Acu-Link.com,2013-09-13 23:05:00,
2013-09-13 19:20:00,65.1,45.5,29.80,North,0,7.3,-999.0,49,-99.99,,,0.00,Acu-Link.com,2013-09-13 23:20:00,
2013-09-13 19:36:00,63.5,45.6,29.81,NE,45,5.3,-999.0,52,-99.99,,,0.00,Acu-Link.com,2013-09-13 23:36:00,
2013-09-13 19:51:00,61.9,44.6,29.81,NW,315,7.3,-999.0,53,-99.99,,,0.00,Acu-Link.com,2013-09-13 23:51:00,
2013-09-13 20:06:00,60.4,44.6,29.82,NNW,337,6.8,-999.0,56,-99.99,,,0.00,Acu-Link.com,2013-09-14 00:06:00,
2013-09-13 20:21:00,59.7,44.4,29.82,NNW,337,6.8,-999.0,57,-99.99,,,0.00,Acu-Link.com,2013-09-14 00:21:00,
2013-09-13 20:36:00,58.6,44.3,29.83,North,0,6.8,-999.0,59,-99.99,,,0.00,Acu-Link.com,2013-09-14 00:36:00,
2013-09-13 20:51:00,57.9,44.5,29.82,NNW,337,7.8,-999.0,61,-99.99,,,0.00,Acu-Link.com,2013-09-14 00:51:00,
2013-09-13 21:06:00,57.0,44.9,29.83,NNW,337,4.7,-999.0,64,-99.99,,,0.00,Acu-Link.com,2013-09-14 01:06:00,
2013-09-13 21:21:00,56.3,45.1,29.84,NNW,337,5.8,-999.0,66,-99.99,,,0.00,Acu-Link.com,2013-09-14 01:21:00,
2013-09-13 21:37:00,55.8,45.4,29.84,NNW,337,8.9,-999.0,68,-99.99,,,0.00,Acu-Link.com,2013-09-14 01:37:00,
2013-09-13 21:52:00,54.9,45.7,29.85,North,0,6.3,-999.0,71,-99.99,,,0.00,Acu-Link.com,2013-09-14 01:52:00,
2013-09-13 22:07:00,54.0,45.5,29.84,North,0,3.7,-999.0,73,-99.99,,,0.00,Acu-Link.com,2013-09-14 02:07:00,
2013-09-13 22:22:00,53.4,45.3,29.85,NNE,22,2.7,-999.0,74,-99.99,,,0.00,Acu-Link.com,2013-09-14 02:22:00,
2013-09-13 22:38:00,52.7,45.3,29.85,NE,45,3.2,-999.0,76,-99.99,,,0.00,Acu-Link.com,2013-09-14 02:38:00,
2013-09-13 22:53:00,52.0,45.7,29.85,NE,45,4.2,-999.0,79,-99.99,,,0.00,Acu-Link.com,2013-09-14 02:53:00,
2013-09-13 23:08:00,52.0,45.7,29.85,NNE,22,4.2,-999.0,79,-99.99,,,0.00,Acu-Link.com,2013-09-14 03:08:00,
2013-09-13 23:23:00,51.4,45.8,29.86,North,0,4.7,-999.0,81,-99.99,,,0.00,Acu-Link.com,2013-09-14 03:23:00,
2013-09-13 23:39:00,51.6,46.3,29.86,NNE,22,3.2,-999.0,82,-99.99,,,0.00,Acu-Link.com,2013-09-14 03:39:00,
2013-09-13 23:54:00,51.6,46.3,29.86,NE,45,2.7,-999.0,82,-99.99,,,0.00,Acu-Link.com,2013-09-14 03:54:00,